sensor_id;sensor_type;location;lat;lon;timestamp;pressure;altitude;pressure_sealevel;temperature;humidity
58668;BME280;59852;43.086;25.634;2023-03-13T00:00:48;99269.59;;;5.85;nan
58668;BME280;59852;43.086;25.634;2023-03-13T00:03:13;99273.75;;;5.89;nan
58668;BME280;59852;43.086;25.634;2023-03-13T00:05:39;99272.19;;;5.85;nan
58668;BME280;59852;43.086;25.634;2023-03-13T00:08:04;99271.97;;;5.71;nan
58668;BME280;59852;43.086;25.634;2023-03-13T00:10:29;99280.00;;;5.65;nan
58668;BME280;59852;43.086;25.634;2023-03-13T00:12:55;99271.31;;;5.66;nan
58668;BME280;59852;43.086;25.634;2023-03-13T00:15:20;99269.59;;;5.85;nan
58668;BME280;59852;43.086;25.634;2023-03-13T00:17:45;99272.38;;;5.62;nan
58668;BME280;59852;43.086;25.634;2023-03-13T00:20:11;99274.34;;;5.35;nan
58668;BME280;59852;43.086;25.634;2023-03-13T00:22:36;99269.38;;;5.51;nan
58668;BME280;59852;43.086;25.634;2023-03-13T00:25:01;99271.44;;;5.63;nan
58668;BME280;59852;43.086;25.634;2023-03-13T00:27:27;99267.34;;;5.57;nan
58668;BME280;59852;43.086;25.634;2023-03-13T00:29:56;99265.81;;;5.11;nan
58668;BME280;59852;43.086;25.634;2023-03-13T00:32:21;99266.38;;;5.39;nan
58668;BME280;59852;43.086;25.634;2023-03-13T00:34:46;99273.28;;;5.18;nan
58668;BME280;59852;43.086;25.634;2023-03-13T00:37:12;99274.72;;;5.26;nan
58668;BME280;59852;43.086;25.634;2023-03-13T00:39:37;99267.75;;;5.06;nan
58668;BME280;59852;43.086;25.634;2023-03-13T00:42:02;99272.44;;;5.18;nan
58668;BME280;59852;43.086;25.634;2023-03-13T00:44:28;99275.19;;;4.71;nan
58668;BME280;59852;43.086;25.634;2023-03-13T00:46:54;99279.53;;;4.93;nan
58668;BME280;59852;43.086;25.634;2023-03-13T00:49:19;99272.34;;;4.99;nan
58668;BME280;59852;43.086;25.634;2023-03-13T00:51:44;99278.56;;;4.95;nan
58668;BME280;59852;43.086;25.634;2023-03-13T00:54:10;99270.34;;;5.06;nan
58668;BME280;59852;43.086;25.634;2023-03-13T00:56:35;99272.19;;;4.82;nan
58668;BME280;59852;43.086;25.634;2023-03-13T00:59:01;99271.44;;;4.56;nan
58668;BME280;59852;43.086;25.634;2023-03-13T01:01:28;99273.34;;;4.51;nan
58668;BME280;59852;43.086;25.634;2023-03-13T01:03:57;99271.56;;;4.53;nan
58668;BME280;59852;43.086;25.634;2023-03-13T01:06:24;99279.91;;;4.83;nan
58668;BME280;59852;43.086;25.634;2023-03-13T01:08:50;99270.59;;;4.78;nan
58668;BME280;59852;43.086;25.634;2023-03-13T01:11:17;99277.00;;;4.69;nan
58668;BME280;59852;43.086;25.634;2023-03-13T01:13:43;99280.34;;;4.71;nan
58668;BME280;59852;43.086;25.634;2023-03-13T01:16:09;99281.41;;;4.89;nan
58668;BME280;59852;43.086;25.634;2023-03-13T01:18:36;99284.75;;;4.69;nan
58668;BME280;59852;43.086;25.634;2023-03-13T01:21:02;99291.75;;;4.67;nan
58668;BME280;59852;43.086;25.634;2023-03-13T01:23:27;99283.16;;;4.88;nan
58668;BME280;59852;43.086;25.634;2023-03-13T01:25:53;99281.81;;;4.56;nan
58668;BME280;59852;43.086;25.634;2023-03-13T01:28:19;99287.13;;;4.75;nan
58668;BME280;59852;43.086;25.634;2023-03-13T01:30:44;99293.63;;;4.64;nan
58668;BME280;59852;43.086;25.634;2023-03-13T01:33:09;99297.22;;;4.59;nan
58668;BME280;59852;43.086;25.634;2023-03-13T01:35:35;99297.47;;;4.53;nan
58668;BME280;59852;43.086;25.634;2023-03-13T01:38:00;99294.97;;;4.74;nan
58668;BME280;59852;43.086;25.634;2023-03-13T01:40:25;99298.75;;;4.42;nan
58668;BME280;59852;43.086;25.634;2023-03-13T01:42:52;99299.44;;;4.47;nan
58668;BME280;59852;43.086;25.634;2023-03-13T01:48:02;99310.53;;;4.50;nan
58668;BME280;59852;43.086;25.634;2023-03-13T01:50:28;99318.25;;;4.28;nan
58668;BME280;59852;43.086;25.634;2023-03-13T01:52:53;99318.63;;;3.94;nan
58668;BME280;59852;43.086;25.634;2023-03-13T01:55:19;99322.38;;;4.34;nan
58668;BME280;59852;43.086;25.634;2023-03-13T01:57:46;99328.84;;;4.46;nan
58668;BME280;59852;43.086;25.634;2023-03-13T02:00:18;99332.69;;;4.36;nan
58668;BME280;59852;43.086;25.634;2023-03-13T02:02:46;99329.69;;;4.23;nan
58668;BME280;59852;43.086;25.634;2023-03-13T02:05:12;99332.81;;;4.08;nan
58668;BME280;59852;43.086;25.634;2023-03-13T02:07:40;99338.91;;;4.07;nan
58668;BME280;59852;43.086;25.634;2023-03-13T02:10:07;99337.88;;;4.11;nan
58668;BME280;59852;43.086;25.634;2023-03-13T02:12:33;99334.91;;;4.21;nan
58668;BME280;59852;43.086;25.634;2023-03-13T02:15:00;99337.78;;;4.14;nan
58668;BME280;59852;43.086;25.634;2023-03-13T02:17:28;99351.97;;;4.02;nan
58668;BME280;59852;43.086;25.634;2023-03-13T02:19:54;99343.91;;;4.11;nan
58668;BME280;59852;43.086;25.634;2023-03-13T02:22:28;99349.56;;;3.72;nan
58668;BME280;59852;43.086;25.634;2023-03-13T02:25:41;99351.56;;;4.14;nan
58668;BME280;59852;43.086;25.634;2023-03-13T02:27:41;99353.78;;;4.00;nan
58668;BME280;59852;43.086;25.634;2023-03-13T02:30:08;99346.94;;;3.99;nan
58668;BME280;59852;43.086;25.634;2023-03-13T02:32:33;99360.75;;;3.73;nan
58668;BME280;59852;43.086;25.634;2023-03-13T02:35:03;99358.44;;;3.65;nan
58668;BME280;59852;43.086;25.634;2023-03-13T02:37:30;99362.66;;;3.68;nan
58668;BME280;59852;43.086;25.634;2023-03-13T02:39:57;99348.41;;;3.81;nan
58668;BME280;59852;43.086;25.634;2023-03-13T02:42:24;99355.50;;;3.50;nan
58668;BME280;59852;43.086;25.634;2023-03-13T02:44:49;99359.91;;;3.72;nan
58668;BME280;59852;43.086;25.634;2023-03-13T02:47:19;99367.34;;;3.57;nan
58668;BME280;59852;43.086;25.634;2023-03-13T02:49:45;99365.53;;;3.59;nan
58668;BME280;59852;43.086;25.634;2023-03-13T02:52:16;99367.41;;;3.54;nan
58668;BME280;59852;43.086;25.634;2023-03-13T02:54:44;99369.03;;;3.58;nan
58668;BME280;59852;43.086;25.634;2023-03-13T02:57:11;99371.47;;;3.36;nan
58668;BME280;59852;43.086;25.634;2023-03-13T02:59:36;99374.44;;;3.50;nan
58668;BME280;59852;43.086;25.634;2023-03-13T03:02:02;99374.63;;;3.70;nan
58668;BME280;59852;43.086;25.634;2023-03-13T03:04:28;99384.06;;;3.47;nan
58668;BME280;59852;43.086;25.634;2023-03-13T03:06:54;99382.56;;;3.39;nan
58668;BME280;59852;43.086;25.634;2023-03-13T03:09:19;99387.00;;;3.36;nan
58668;BME280;59852;43.086;25.634;2023-03-13T03:11:45;99390.72;;;3.27;nan
58668;BME280;59852;43.086;25.634;2023-03-13T03:14:10;99393.06;;;3.35;nan
58668;BME280;59852;43.086;25.634;2023-03-13T03:16:36;99399.53;;;2.92;nan
58668;BME280;59852;43.086;25.634;2023-03-13T03:19:01;99403.25;;;3.11;nan
58668;BME280;59852;43.086;25.634;2023-03-13T03:21:27;99409.75;;;3.25;nan
58668;BME280;59852;43.086;25.634;2023-03-13T03:23:52;99405.59;;;3.19;nan
58668;BME280;59852;43.086;25.634;2023-03-13T03:26:18;99401.16;;;3.23;nan
58668;BME280;59852;43.086;25.634;2023-03-13T03:28:43;99395.28;;;2.90;nan
58668;BME280;59852;43.086;25.634;2023-03-13T03:31:09;99409.97;;;3.17;nan
58668;BME280;59852;43.086;25.634;2023-03-13T03:33:35;99416.44;;;3.30;nan
58668;BME280;59852;43.086;25.634;2023-03-13T03:36:02;99417.19;;;3.34;nan
58668;BME280;59852;43.086;25.634;2023-03-13T03:38:27;99425.00;;;3.32;nan
58668;BME280;59852;43.086;25.634;2023-03-13T03:40:53;99423.53;;;3.25;nan
58668;BME280;59852;43.086;25.634;2023-03-13T03:43:18;99433.38;;;3.12;nan
58668;BME280;59852;43.086;25.634;2023-03-13T03:45:43;99432.16;;;2.96;nan
58668;BME280;59852;43.086;25.634;2023-03-13T03:48:09;99436.84;;;3.11;nan
58668;BME280;59852;43.086;25.634;2023-03-13T03:50:34;99436.91;;;3.10;nan
58668;BME280;59852;43.086;25.634;2023-03-13T03:52:59;99438.91;;;2.71;nan
58668;BME280;59852;43.086;25.634;2023-03-13T03:55:25;99444.56;;;2.83;nan
58668;BME280;59852;43.086;25.634;2023-03-13T03:57:50;99459.53;;;3.02;nan
58668;BME280;59852;43.086;25.634;2023-03-13T04:00:16;99457.13;;;2.96;nan
58668;BME280;59852;43.086;25.634;2023-03-13T04:02:43;99459.84;;;2.91;nan
58668;BME280;59852;43.086;25.634;2023-03-13T04:05:08;99460.53;;;2.98;nan
58668;BME280;59852;43.086;25.634;2023-03-13T04:07:34;99465.75;;;3.24;nan
58668;BME280;59852;43.086;25.634;2023-03-13T04:09:59;99466.31;;;3.34;nan
58668;BME280;59852;43.086;25.634;2023-03-13T04:12:24;99474.22;;;3.29;nan
58668;BME280;59852;43.086;25.634;2023-03-13T04:14:50;99474.78;;;3.11;nan
58668;BME280;59852;43.086;25.634;2023-03-13T04:17:15;99477.25;;;2.84;nan
58668;BME280;59852;43.086;25.634;2023-03-13T04:19:41;99477.13;;;2.89;nan
58668;BME280;59852;43.086;25.634;2023-03-13T04:22:06;99473.47;;;2.67;nan
58668;BME280;59852;43.086;25.634;2023-03-13T04:24:31;99476.63;;;2.76;nan
58668;BME280;59852;43.086;25.634;2023-03-13T04:26:57;99485.31;;;3.03;nan
58668;BME280;59852;43.086;25.634;2023-03-13T04:29:22;99498.75;;;2.86;nan
58668;BME280;59852;43.086;25.634;2023-03-13T04:31:47;99491.66;;;2.93;nan
58668;BME280;59852;43.086;25.634;2023-03-13T04:34:13;99495.97;;;3.22;nan
58668;BME280;59852;43.086;25.634;2023-03-13T04:36:38;99502.44;;;2.78;nan
58668;BME280;59852;43.086;25.634;2023-03-13T04:39:03;99497.56;;;2.67;nan
58668;BME280;59852;43.086;25.634;2023-03-13T04:41:29;99513.19;;;2.61;nan
58668;BME280;59852;43.086;25.634;2023-03-13T04:43:54;99511.06;;;2.77;nan
58668;BME280;59852;43.086;25.634;2023-03-13T04:46:19;99521.22;;;2.83;nan
58668;BME280;59852;43.086;25.634;2023-03-13T04:48:45;99512.56;;;2.85;nan
58668;BME280;59852;43.086;25.634;2023-03-13T04:51:11;99519.31;;;2.90;nan
58668;BME280;59852;43.086;25.634;2023-03-13T04:53:36;99521.00;;;2.59;nan
58668;BME280;59852;43.086;25.634;2023-03-13T04:56:02;99519.97;;;2.98;nan
58668;BME280;59852;43.086;25.634;2023-03-13T04:58:27;99526.38;;;4.26;nan
58668;BME280;59852;43.086;25.634;2023-03-13T05:00:53;99523.00;;;4.49;nan
58668;BME280;59852;43.086;25.634;2023-03-13T05:03:19;99524.06;;;4.92;nan
58668;BME280;59852;43.086;25.634;2023-03-13T05:05:44;99530.88;;;6.10;nan
58668;BME280;59852;43.086;25.634;2023-03-13T05:08:09;99535.88;;;6.14;nan
58668;BME280;59852;43.086;25.634;2023-03-13T05:10:35;99539.03;;;6.43;nan
58668;BME280;59852;43.086;25.634;2023-03-13T05:13:00;99539.19;;;8.81;nan
58668;BME280;59852;43.086;25.634;2023-03-13T05:15:25;99533.63;;;9.85;nan
58668;BME280;59852;43.086;25.634;2023-03-13T05:17:51;99536.75;;;8.78;nan
58668;BME280;59852;43.086;25.634;2023-03-13T05:20:16;99535.03;;;8.95;nan
58668;BME280;59852;43.086;25.634;2023-03-13T05:22:42;99542.66;;;8.82;nan
58668;BME280;59852;43.086;25.634;2023-03-13T05:25:07;99537.28;;;10.58;nan
58668;BME280;59852;43.086;25.634;2023-03-13T05:27:32;99538.53;;;10.67;nan
58668;BME280;59852;43.086;25.634;2023-03-13T05:29:58;99537.28;;;10.44;nan
58668;BME280;59852;43.086;25.634;2023-03-13T05:32:23;99524.13;;;11.60;nan
58668;BME280;59852;43.086;25.634;2023-03-13T05:34:48;99527.28;;;12.98;nan
58668;BME280;59852;43.086;25.634;2023-03-13T05:37:14;99535.41;;;12.68;nan
58668;BME280;59852;43.086;25.634;2023-03-13T05:39:39;99538.38;;;12.63;nan
58668;BME280;59852;43.086;25.634;2023-03-13T05:42:04;99540.16;;;14.13;nan
58668;BME280;59852;43.086;25.634;2023-03-13T05:44:30;99536.16;;;15.01;nan
58668;BME280;59852;43.086;25.634;2023-03-13T05:46:55;99542.16;;;9.24;nan
58668;BME280;59852;43.086;25.634;2023-03-13T05:49:20;99553.47;;;9.25;nan
58668;BME280;59852;43.086;25.634;2023-03-13T05:51:46;99546.09;;;9.80;nan
58668;BME280;59852;43.086;25.634;2023-03-13T05:54:11;99542.97;;;8.58;nan
58668;BME280;59852;43.086;25.634;2023-03-13T05:56:36;99561.09;;;6.32;nan
58668;BME280;59852;43.086;25.634;2023-03-13T05:59:02;99550.94;;;6.26;nan
58668;BME280;59852;43.086;25.634;2023-03-13T06:01:27;99571.03;;;6.01;nan
58668;BME280;59852;43.086;25.634;2023-03-13T06:03:53;99565.56;;;6.07;nan
58668;BME280;59852;43.086;25.634;2023-03-13T06:06:18;99564.66;;;6.08;nan
58668;BME280;59852;43.086;25.634;2023-03-13T06:08:43;99566.97;;;5.94;nan
58668;BME280;59852;43.086;25.634;2023-03-13T06:11:09;99572.97;;;5.72;nan
58668;BME280;59852;43.086;25.634;2023-03-13T06:13:34;99575.19;;;5.13;nan
58668;BME280;59852;43.086;25.634;2023-03-13T06:16:00;99584.19;;;5.96;nan
58668;BME280;59852;43.086;25.634;2023-03-13T06:18:25;99576.47;;;5.95;nan
58668;BME280;59852;43.086;25.634;2023-03-13T06:20:55;99572.69;;;5.57;nan
58668;BME280;59852;43.086;25.634;2023-03-13T06:23:20;99573.47;;;4.62;nan
58668;BME280;59852;43.086;25.634;2023-03-13T06:25:46;99577.03;;;4.59;nan
58668;BME280;59852;43.086;25.634;2023-03-13T06:28:12;99576.47;;;4.76;nan
58668;BME280;59852;43.086;25.634;2023-03-13T06:30:37;99576.84;;;5.84;nan
58668;BME280;59852;43.086;25.634;2023-03-13T06:33:03;99580.94;;;5.44;nan
58668;BME280;59852;43.086;25.634;2023-03-13T06:35:28;99576.25;;;5.31;nan
58668;BME280;59852;43.086;25.634;2023-03-13T06:37:53;99578.00;;;5.54;nan
58668;BME280;59852;43.086;25.634;2023-03-13T06:40:19;99575.03;;;5.41;nan
58668;BME280;59852;43.086;25.634;2023-03-13T06:42:44;99574.91;;;5.89;nan
58668;BME280;59852;43.086;25.634;2023-03-13T06:45:09;99583.66;;;6.10;nan
58668;BME280;59852;43.086;25.634;2023-03-13T06:47:35;99580.63;;;5.75;nan
58668;BME280;59852;43.086;25.634;2023-03-13T06:50:00;99584.31;;;5.93;nan
58668;BME280;59852;43.086;25.634;2023-03-13T06:52:25;99580.63;;;6.21;nan
58668;BME280;59852;43.086;25.634;2023-03-13T06:54:52;99585.72;;;6.02;nan
58668;BME280;59852;43.086;25.634;2023-03-13T06:57:17;99579.38;;;5.86;nan
58668;BME280;59852;43.086;25.634;2023-03-13T06:59:42;99578.97;;;6.18;nan
58668;BME280;59852;43.086;25.634;2023-03-13T07:02:09;99578.47;;;6.10;nan
58668;BME280;59852;43.086;25.634;2023-03-13T07:04:35;99579.25;;;5.89;nan
58668;BME280;59852;43.086;25.634;2023-03-13T07:07:00;99570.31;;;5.74;nan
58668;BME280;59852;43.086;25.634;2023-03-13T07:09:26;99577.78;;;6.05;nan
58668;BME280;59852;43.086;25.634;2023-03-13T07:11:51;99572.72;;;6.02;nan
58668;BME280;59852;43.086;25.634;2023-03-13T07:14:17;99572.72;;;6.24;nan
58668;BME280;59852;43.086;25.634;2023-03-13T07:16:42;99569.47;;;5.73;nan
58668;BME280;59852;43.086;25.634;2023-03-13T07:19:08;99571.19;;;6.18;nan
58668;BME280;59852;43.086;25.634;2023-03-13T07:21:33;99573.25;;;6.32;nan
58668;BME280;59852;43.086;25.634;2023-03-13T07:23:58;99565.63;;;6.27;nan
58668;BME280;59852;43.086;25.634;2023-03-13T07:26:24;99564.25;;;6.61;nan
58668;BME280;59852;43.086;25.634;2023-03-13T07:28:49;99567.25;;;6.72;nan
58668;BME280;59852;43.086;25.634;2023-03-13T07:31:16;99560.66;;;7.04;nan
58668;BME280;59852;43.086;25.634;2023-03-13T07:33:41;99563.47;;;6.79;nan
58668;BME280;59852;43.086;25.634;2023-03-13T07:36:07;99560.59;;;6.85;nan
58668;BME280;59852;43.086;25.634;2023-03-13T07:38:33;99558.66;;;6.90;nan
58668;BME280;59852;43.086;25.634;2023-03-13T07:40:59;99551.19;;;7.22;nan
58668;BME280;59852;43.086;25.634;2023-03-13T07:43:24;99546.00;;;7.60;nan
58668;BME280;59852;43.086;25.634;2023-03-13T07:48:18;99542.69;;;6.59;nan
58668;BME280;59852;43.086;25.634;2023-03-13T07:50:44;99533.41;;;6.93;nan
58668;BME280;59852;43.086;25.634;2023-03-13T07:53:09;99529.41;;;8.52;nan
58668;BME280;59852;43.086;25.634;2023-03-13T07:55:34;99522.63;;;8.65;nan
58668;BME280;59852;43.086;25.634;2023-03-13T07:58:00;99521.59;;;9.02;nan
58668;BME280;59852;43.086;25.634;2023-03-13T08:00:25;99533.84;;;9.17;nan
58668;BME280;59852;43.086;25.634;2023-03-13T08:02:50;99532.63;;;7.67;nan
58668;BME280;59852;43.086;25.634;2023-03-13T08:05:16;99532.16;;;7.76;nan
58668;BME280;59852;43.086;25.634;2023-03-13T08:07:43;99518.63;;;9.26;nan
58668;BME280;59852;43.086;25.634;2023-03-13T08:10:08;99530.75;;;9.58;nan
58668;BME280;59852;43.086;25.634;2023-03-13T08:12:34;99528.94;;;8.44;nan
58668;BME280;59852;43.086;25.634;2023-03-13T08:14:59;99522.53;;;8.84;nan
58668;BME280;59852;43.086;25.634;2023-03-13T08:17:25;99521.34;;;9.07;nan
58668;BME280;59852;43.086;25.634;2023-03-13T08:19:52;99525.00;;;9.83;nan
58668;BME280;59852;43.086;25.634;2023-03-13T08:22:18;99512.72;;;9.38;nan
58668;BME280;59852;43.086;25.634;2023-03-13T08:24:43;99522.25;;;9.86;nan
58668;BME280;59852;43.086;25.634;2023-03-13T08:27:08;99518.38;;;9.93;nan
58668;BME280;59852;43.086;25.634;2023-03-13T08:29:34;99518.56;;;9.59;nan
58668;BME280;59852;43.086;25.634;2023-03-13T08:31:59;99517.97;;;9.85;nan
58668;BME280;59852;43.086;25.634;2023-03-13T08:34:24;99514.81;;;9.15;nan
58668;BME280;59852;43.086;25.634;2023-03-13T08:36:50;99521.47;;;9.21;nan
58668;BME280;59852;43.086;25.634;2023-03-13T08:39:17;99519.28;;;9.92;nan
58668;BME280;59852;43.086;25.634;2023-03-13T08:41:43;99518.28;;;9.79;nan
58668;BME280;59852;43.086;25.634;2023-03-13T08:44:15;99514.84;;;9.94;nan
58668;BME280;59852;43.086;25.634;2023-03-13T08:46:41;99509.94;;;9.88;nan
58668;BME280;59852;43.086;25.634;2023-03-13T08:49:08;99499.91;;;9.33;nan
58668;BME280;59852;43.086;25.634;2023-03-13T08:51:34;99510.34;;;9.96;nan
58668;BME280;59852;43.086;25.634;2023-03-13T08:54:00;99504.75;;;10.18;nan
58668;BME280;59852;43.086;25.634;2023-03-13T08:56:26;99513.44;;;9.08;nan
58668;BME280;59852;43.086;25.634;2023-03-13T08:58:53;99506.47;;;9.09;nan
58668;BME280;59852;43.086;25.634;2023-03-13T09:01:20;99498.31;;;9.78;nan
58668;BME280;59852;43.086;25.634;2023-03-13T09:03:45;99501.38;;;10.16;nan
58668;BME280;59852;43.086;25.634;2023-03-13T09:06:11;99507.09;;;9.77;nan
58668;BME280;59852;43.086;25.634;2023-03-13T09:08:37;99506.84;;;9.50;nan
58668;BME280;59852;43.086;25.634;2023-03-13T09:11:07;99508.69;;;9.80;nan
58668;BME280;59852;43.086;25.634;2023-03-13T09:13:33;99495.78;;;9.61;nan
58668;BME280;59852;43.086;25.634;2023-03-13T09:16:04;99487.06;;;10.07;nan
58668;BME280;59852;43.086;25.634;2023-03-13T09:18:30;99481.69;;;9.95;nan
58668;BME280;59852;43.086;25.634;2023-03-13T09:20:56;99475.97;;;9.72;nan
58668;BME280;59852;43.086;25.634;2023-03-13T09:23:21;99480.53;;;9.85;nan
58668;BME280;59852;43.086;25.634;2023-03-13T09:25:48;99470.75;;;9.72;nan
58668;BME280;59852;43.086;25.634;2023-03-13T09:28:13;99475.91;;;9.58;nan
58668;BME280;59852;43.086;25.634;2023-03-13T09:30:38;99477.34;;;9.16;nan
58668;BME280;59852;43.086;25.634;2023-03-13T09:33:04;99474.47;;;9.68;nan
58668;BME280;59852;43.086;25.634;2023-03-13T09:35:29;99466.06;;;9.47;nan
58668;BME280;59852;43.086;25.634;2023-03-13T09:37:55;99461.47;;;9.83;nan
58668;BME280;59852;43.086;25.634;2023-03-13T09:40:21;99463.84;;;9.71;nan
58668;BME280;59852;43.086;25.634;2023-03-13T09:42:54;99448.59;;;10.25;nan
58668;BME280;59852;43.086;25.634;2023-03-13T09:45:28;99441.91;;;10.20;nan
58668;BME280;59852;43.086;25.634;2023-03-13T09:47:59;99459.31;;;9.59;nan
58668;BME280;59852;43.086;25.634;2023-03-13T09:50:27;99459.63;;;9.85;nan
58668;BME280;59852;43.086;25.634;2023-03-13T09:52:55;99462.44;;;9.66;nan
58668;BME280;59852;43.086;25.634;2023-03-13T09:55:22;99454.28;;;9.56;nan
58668;BME280;59852;43.086;25.634;2023-03-13T09:57:53;99455.19;;;9.71;nan
58668;BME280;59852;43.086;25.634;2023-03-13T10:00:38;99451.81;;;9.85;nan
58668;BME280;59852;43.086;25.634;2023-03-13T10:03:05;99453.25;;;9.74;nan
58668;BME280;59852;43.086;25.634;2023-03-13T10:05:33;99457.31;;;9.64;nan
58668;BME280;59852;43.086;25.634;2023-03-13T10:10:43;99443.88;;;9.70;nan
58668;BME280;59852;43.086;25.634;2023-03-13T10:13:12;99425.44;;;9.73;nan
58668;BME280;59852;43.086;25.634;2023-03-13T10:18:12;99434.88;;;9.60;nan
58668;BME280;59852;43.086;25.634;2023-03-13T10:20:38;99421.81;;;9.76;nan
58668;BME280;59852;43.086;25.634;2023-03-13T10:23:06;99422.06;;;10.01;nan
58668;BME280;59852;43.086;25.634;2023-03-13T10:25:35;99414.81;;;10.06;nan
58668;BME280;59852;43.086;25.634;2023-03-13T10:28:02;99412.28;;;10.05;nan
58668;BME280;59852;43.086;25.634;2023-03-13T10:30:31;99416.19;;;9.68;nan
58668;BME280;59852;43.086;25.634;2023-03-13T10:35:33;99405.38;;;10.34;nan
58668;BME280;59852;43.086;25.634;2023-03-13T10:38:05;99406.53;;;9.54;nan
58668;BME280;59852;43.086;25.634;2023-03-13T10:40:33;99397.00;;;9.83;nan
58668;BME280;59852;43.086;25.634;2023-03-13T10:43:00;99392.31;;;10.34;nan
58668;BME280;59852;43.086;25.634;2023-03-13T10:45:25;99391.19;;;10.08;nan
58668;BME280;59852;43.086;25.634;2023-03-13T10:47:54;99387.66;;;10.09;nan
58668;BME280;59852;43.086;25.634;2023-03-13T10:50:22;99390.13;;;10.26;nan
58668;BME280;59852;43.086;25.634;2023-03-13T10:52:48;99388.25;;;10.28;nan
58668;BME280;59852;43.086;25.634;2023-03-13T10:55:21;99376.78;;;10.01;nan
58668;BME280;59852;43.086;25.634;2023-03-13T11:00:27;99355.03;;;9.86;nan
58668;BME280;59852;43.086;25.634;2023-03-13T11:02:53;99366.41;;;10.29;nan
58668;BME280;59852;43.086;25.634;2023-03-13T11:07:53;99365.09;;;10.51;nan
58668;BME280;59852;43.086;25.634;2023-03-13T11:12:45;99350.75;;;10.44;nan
58668;BME280;59852;43.086;25.634;2023-03-13T11:15:15;99344.63;;;10.15;nan
58668;BME280;59852;43.086;25.634;2023-03-13T11:17:41;99333.56;;;10.54;nan
58668;BME280;59852;43.086;25.634;2023-03-13T11:20:21;99337.84;;;10.41;nan
58668;BME280;59852;43.086;25.634;2023-03-13T11:22:59;99341.84;;;10.75;nan
58668;BME280;59852;43.086;25.634;2023-03-13T11:25:30;99331.78;;;10.40;nan
58668;BME280;59852;43.086;25.634;2023-03-13T11:33:10;99319.81;;;10.65;nan
58668;BME280;59852;43.086;25.634;2023-03-13T11:35:44;99318.66;;;10.83;nan
58668;BME280;59852;43.086;25.634;2023-03-13T11:38:13;99312.94;;;10.35;nan
58668;BME280;59852;43.086;25.634;2023-03-13T11:41:27;99310.13;;;10.24;nan
58668;BME280;59852;43.086;25.634;2023-03-13T11:48:52;99303.72;;;10.71;nan
58668;BME280;59852;43.086;25.634;2023-03-13T11:56:31;99287.69;;;10.89;nan
58668;BME280;59852;43.086;25.634;2023-03-13T11:59:12;99286.09;;;11.01;nan
58668;BME280;59852;43.086;25.634;2023-03-13T12:01:46;99284.22;;;10.89;nan
58668;BME280;59852;43.086;25.634;2023-03-13T12:11:40;99271.47;;;11.11;nan
58668;BME280;59852;43.086;25.634;2023-03-13T12:14:12;99264.38;;;10.99;nan
58668;BME280;59852;43.086;25.634;2023-03-13T12:19:06;99262.34;;;10.90;nan
58668;BME280;59852;43.086;25.634;2023-03-13T12:21:38;99252.97;;;11.00;nan
58668;BME280;59852;43.086;25.634;2023-03-13T12:26:40;99265.38;;;10.84;nan
58668;BME280;59852;43.086;25.634;2023-03-13T12:31:37;99258.41;;;10.97;nan
58668;BME280;59852;43.086;25.634;2023-03-13T12:34:13;99263.78;;;10.81;nan
58668;BME280;59852;43.086;25.634;2023-03-13T12:36:43;99262.59;;;11.00;nan
58668;BME280;59852;43.086;25.634;2023-03-13T12:44:31;99253.88;;;11.13;nan
58668;BME280;59852;43.086;25.634;2023-03-13T12:49:32;99247.94;;;10.97;nan
58668;BME280;59852;43.086;25.634;2023-03-13T12:59:43;99250.13;;;11.30;nan
58668;BME280;59852;43.086;25.634;2023-03-13T13:02:20;99261.25;;;11.34;nan
58668;BME280;59852;43.086;25.634;2023-03-13T13:04:46;99251.50;;;11.36;nan
58668;BME280;59852;43.086;25.634;2023-03-13T13:12:28;99246.03;;;11.26;nan
58668;BME280;59852;43.086;25.634;2023-03-13T13:14:55;99236.38;;;11.14;nan
58668;BME280;59852;43.086;25.634;2023-03-13T13:17:32;99245.53;;;11.21;nan
58668;BME280;59852;43.086;25.634;2023-03-13T13:20:20;99238.28;;;11.25;nan
58668;BME280;59852;43.086;25.634;2023-03-13T13:22:44;99242.19;;;11.44;nan
58668;BME280;59852;43.086;25.634;2023-03-13T13:30:02;99230.38;;;11.52;nan
58668;BME280;59852;43.086;25.634;2023-03-13T13:35:03;99222.81;;;11.60;nan
58668;BME280;59852;43.086;25.634;2023-03-13T13:37:30;99222.09;;;11.58;nan
58668;BME280;59852;43.086;25.634;2023-03-13T13:40:16;99222.41;;;11.53;nan
58668;BME280;59852;43.086;25.634;2023-03-13T13:42:49;99219.34;;;11.46;nan
58668;BME280;59852;43.086;25.634;2023-03-13T13:47:44;99209.59;;;11.48;nan
58668;BME280;59852;43.086;25.634;2023-03-13T13:50:20;99211.41;;;11.48;nan
58668;BME280;59852;43.086;25.634;2023-03-13T13:52:46;99211.22;;;11.51;nan
58668;BME280;59852;43.086;25.634;2023-03-13T13:55:34;99212.22;;;11.36;nan
58668;BME280;59852;43.086;25.634;2023-03-13T13:58:08;99218.84;;;11.41;nan
58668;BME280;59852;43.086;25.634;2023-03-13T14:00:40;99216.50;;;11.37;nan
58668;BME280;59852;43.086;25.634;2023-03-13T14:03:19;99214.41;;;11.29;nan
58668;BME280;59852;43.086;25.634;2023-03-13T14:05:46;99208.53;;;11.13;nan
58668;BME280;59852;43.086;25.634;2023-03-13T14:10:47;99203.41;;;11.11;nan
58668;BME280;59852;43.086;25.634;2023-03-13T14:13:19;99207.47;;;11.15;nan
58668;BME280;59852;43.086;25.634;2023-03-13T14:15:48;99207.59;;;11.14;nan
58668;BME280;59852;43.086;25.634;2023-03-13T14:18:24;99207.59;;;11.14;nan
58668;BME280;59852;43.086;25.634;2023-03-13T14:20:51;99207.75;;;11.11;nan
58668;BME280;59852;43.086;25.634;2023-03-13T14:25:55;99209.25;;;11.15;nan
58668;BME280;59852;43.086;25.634;2023-03-13T14:28:24;99207.03;;;11.09;nan
58668;BME280;59852;43.086;25.634;2023-03-13T14:30:51;99208.72;;;11.10;nan
58668;BME280;59852;43.086;25.634;2023-03-13T14:33:17;99207.13;;;11.07;nan
58668;BME280;59852;43.086;25.634;2023-03-13T14:35:42;99213.44;;;11.05;nan
58668;BME280;59852;43.086;25.634;2023-03-13T14:38:21;99204.63;;;11.06;nan
58668;BME280;59852;43.086;25.634;2023-03-13T14:40:47;99200.44;;;11.03;nan
58668;BME280;59852;43.086;25.634;2023-03-13T14:43:46;99210.81;;;11.05;nan
58668;BME280;59852;43.086;25.634;2023-03-13T14:46:15;99210.69;;;11.06;nan